Time;durP1;ratioP1;P1;durP2;ratioP2;P2;SDS_P1;SDS_P2;PMS_P1;PMS_P2;Temp;Humidity;BMP_temperature;BMP_pressure;BME280_temperature;BME280_humidity;BME280_pressure;Samples;Min_cycle;Max_cycle;Signal;HPM_P1;HPM_P2
2023/03/29 00:00:15;;;;;;;;;;;;;;;;;;5005511;28;19936;-81
2023/03/29 00:02:48;;;;;;;;;;;;;;;;;;5009120;28;19921;-80
2023/03/29 00:05:15;;;;;;;;;;;;;;;;;;5004852;28;20274;-81
2023/03/29 00:07:43;;;;;;;;;;;;;;;;;;5001611;28;19921;-80
2023/03/29 00:10:15;;;;;;;;;;;;;;;;;;5004108;28;19921;-82
2023/03/29 00:12:43;;;;;;;;;;;;;;;;;;5012157;28;19921;-80
2023/03/29 00:15:10;;;;;;;;;;;;;;;;;;5006162;28;19922;-81
2023/03/29 00:17:38;;;;;;;;;;;;;;;;;;5010009;28;19929;-81
2023/03/29 00:20:08;;;;;;;;;;;;;;;;;;5010291;28;19937;-81
2023/03/29 00:22:36;;;;;;;;;;;;;;;;;;5004208;28;19921;-80
2023/03/29 00:25:04;;;;;;;;;;;;;;;;;;5009854;28;19936;-80
2023/03/29 00:27:31;;;;;;;;;;;;;;;;;;5011077;28;19960;-81
2023/03/29 00:30:04;;;;;;;;;;;;;;;;;;5003477;28;19922;-80
2023/03/29 00:32:31;;;;;;;;;;;;;;;;;;5019210;28;19927;-80
2023/03/29 00:34:59;;;;;;;;;;;;;;;;;;5004152;28;19929;-81
2023/03/29 00:37:32;;;;;;;;;;;;;;;;;;5002208;28;19933;-80
2023/03/29 00:39:59;;;;;;;;;;;;;;;;;;5018526;28;19922;-80
2023/03/29 00:42:27;;;;;;;;;;;;;;;;;;5019742;28;19925;-80
2023/03/29 00:44:55;;;;;;;;;;;;;;;;;;5020313;28;20610;-80
2023/03/29 00:47:27;;;;;;;;;;;;;;;;;;5018354;28;19921;-80
2023/03/29 00:49:56;;;;;;;;;;;;;;;;;;5004546;28;19932;-80
2023/03/29 00:52:29;;;;;;;;;;;;;;;;;;5005409;28;19921;-81
2023/03/29 00:55:01;;;;;;;;;;;;;;;;;;5017915;28;20325;-80
2023/03/29 00:57:29;;;;;;;;;;;;;;;;;;5002407;28;20370;-81
2023/03/29 00:59:56;;;;;;;;;;;;;;;;;;5019996;28;20373;-81
2023/03/29 01:02:24;;;;;;;;;;;;;;;;;;5002911;28;19921;-80
2023/03/29 01:04:52;;;;;;;;;;;;;;;;;;5002660;28;19928;-80
2023/03/29 01:07:24;;;;;;;;;;;;;;;;;;5020216;28;19928;-80
2023/03/29 01:09:52;;;;;;;;;;;;;;;;;;5018792;28;20617;-80
2023/03/29 01:12:19;;;;;;;;;;;;;;;;;;5022910;28;20385;-80
2023/03/29 01:14:47;;;;;;;;;;;;;;;;;;5020649;28;19922;-80
2023/03/29 01:17:15;;;;;;;;;;;;;;;;;;5002381;28;19925;-80
2023/03/29 01:19:43;;;;;;;;;;;;;;;;;;5017693;28;19937;-81
2023/03/29 01:22:12;;;;;;;;;;;;;;;;;;5019086;28;19933;-80
2023/03/29 01:24:40;;;;;;;;;;;;;;;;;;5002141;28;19922;-80
2023/03/29 01:27:08;;;;;;;;;;;;;;;;;;5009553;28;20267;-80
2023/03/29 01:29:35;;;;;;;;;;;;;;;;;;5020402;28;19948;-80
2023/03/29 01:32:08;;;;;;;;;;;;;;;;;;5001466;28;19921;-80
2023/03/29 01:34:36;;;;;;;;;;;;;;;;;;5004158;28;19926;-80
2023/03/29 01:37:03;;;;;;;;;;;;;;;;;;5001772;28;19933;-80
2023/03/29 01:39:33;;;;;;;;;;;;;;;;;;5002095;28;19925;-80
2023/03/29 01:42:00;;;;;;;;;;;;;;;;;;5018551;28;19925;-80
2023/03/29 01:44:28;;;;;;;;;;;;;;;;;;5008204;28;19921;-80
2023/03/29 01:46:55;;;;;;;;;;;;;;;;;;5019328;28;19929;-80
2023/03/29 01:49:23;;;;;;;;;;;;;;;;;;5015777;28;19926;-81
2023/03/29 01:51:55;;;;;;;;;;;;;;;;;;5001589;28;19926;-81
2023/03/29 01:54:23;;;;;;;;;;;;;;;;;;5019942;28;19921;-80
2023/03/29 01:56:56;;;;;;;;;;;;;;;;;;5003699;28;19925;-81
2023/03/29 01:59:25;;;;;;;;;;;;;;;;;;5019193;28;19928;-80
2023/03/29 02:01:52;;;;;;;;;;;;;;;;;;5019552;28;19922;-80
2023/03/29 02:04:20;;;;;;;;;;;;;;;;;;5019324;28;19929;-80
2023/03/29 02:06:54;;;;;;;;;;;;;;;;;;5008868;28;19932;-80
2023/03/29 02:09:22;;;;;;;;;;;;;;;;;;5020627;28;20389;-80
2023/03/29 02:11:49;;;;;;;;;;;;;;;;;;5016804;28;19926;-80
2023/03/29 02:14:17;;;;;;;;;;;;;;;;;;5005094;28;20425;-81
2023/03/29 02:16:49;;;;;;;;;;;;;;;;;;5004765;28;19921;-80
2023/03/29 02:19:22;;;;;;;;;;;;;;;;;;5007295;28;20392;-81
2023/03/29 02:21:55;;;;;;;;;;;;;;;;;;5007455;28;20001;-80
2023/03/29 02:24:22;;;;;;;;;;;;;;;;;;5019229;28;19928;-80
2023/03/29 02:26:50;;;;;;;;;;;;;;;;;;5000845;28;19925;-80
2023/03/29 02:29:18;;;;;;;;;;;;;;;;;;5016676;28;19921;-80
2023/03/29 02:31:46;;;;;;;;;;;;;;;;;;5003699;28;19928;-82
2023/03/29 02:34:15;;;;;;;;;;;;;;;;;;5019833;28;19925;-81
2023/03/29 02:36:42;;;;;;;;;;;;;;;;;;4998637;28;19929;-80
2023/03/29 02:39:15;;;;;;;;;;;;;;;;;;5016687;28;19929;-80
2023/03/29 02:41:43;;;;;;;;;;;;;;;;;;5014246;28;19922;-80
2023/03/29 02:44:10;;;;;;;;;;;;;;;;;;5017577;28;19922;-81
2023/03/29 02:46:38;;;;;;;;;;;;;;;;;;5008049;28;19921;-80
2023/03/29 02:49:06;;;;;;;;;;;;;;;;;;5018904;28;19953;-80
2023/03/29 02:51:35;;;;;;;;;;;;;;;;;;5018824;28;19922;-80
2023/03/29 02:54:07;;;;;;;;;;;;;;;;;;5005235;28;19921;-80
2023/03/29 02:56:35;;;;;;;;;;;;;;;;;;5020644;28;19928;-80
2023/03/29 02:59:02;;;;;;;;;;;;;;;;;;5012668;28;20370;-80
2023/03/29 03:01:35;;;;;;;;;;;;;;;;;;5010702;28;19929;-80
2023/03/29 03:04:03;;;;;;;;;;;;;;;;;;5012732;28;19921;-80
2023/03/29 03:06:36;;;;;;;;;;;;;;;;;;5023766;28;19921;-80
2023/03/29 03:09:04;;;;;;;;;;;;;;;;;;5012327;28;19925;-80
2023/03/29 03:11:40;;;;;;;;;;;;;;;;;;5003844;28;20523;-80
2023/03/29 03:14:12;;;;;;;;;;;;;;;;;;5012468;28;20382;-80
2023/03/29 03:16:40;;;;;;;;;;;;;;;;;;5020338;28;19944;-80
2023/03/29 03:19:08;;;;;;;;;;;;;;;;;;5018061;28;19944;-80
2023/03/29 03:21:36;;;;;;;;;;;;;;;;;;5023964;28;19926;-80
2023/03/29 03:24:04;;;;;;;;;;;;;;;;;;5007461;28;19925;-80
2023/03/29 03:26:37;;;;;;;;;;;;;;;;;;5004062;28;20278;-80
2023/03/29 03:29:05;;;;;;;;;;;;;;;;;;5020112;28;19926;-80
2023/03/29 03:31:52;;;;;;;;;;;;;;;;;;5007872;28;20397;-81
2023/03/29 03:34:45;;;;;;;;;;;;;;;;;;5008608;28;19932;-80
2023/03/29 03:37:18;;;;;;;;;;;;;;;;;;5004173;28;19921;-80
2023/03/29 03:39:46;;;;;;;;;;;;;;;;;;5021347;28;19922;-81
2023/03/29 03:42:19;;;;;;;;;;;;;;;;;;5006146;28;19929;-80
2023/03/29 03:44:46;;;;;;;;;;;;;;;;;;5021254;28;20883;-81
2023/03/29 03:47:42;;;;;;;;;;;;;;;;;;4998367;28;19925;-80
2023/03/29 03:50:19;;;;;;;;;;;;;;;;;;5011064;28;19925;-81
2023/03/29 03:52:46;;;;;;;;;;;;;;;;;;5005641;28;19941;-82
2023/03/29 03:55:15;;;;;;;;;;;;;;;;;;5023893;28;19933;-80
2023/03/29 03:57:47;;;;;;;;;;;;;;;;;;5005543;28;20601;-80
2023/03/29 04:00:22;;;;;;;;;;;;;;;;;;5020039;28;19922;-81
2023/03/29 04:03:07;;;;;;;;;;;;;;;;;;5021569;28;19922;-81
2023/03/29 04:05:43;;;;;;;;;;;;;;;;;;5001378;28;20290;-80
2023/03/29 04:08:18;;;;;;;;;;;;;;;;;;5004391;28;19926;-80
2023/03/29 04:11:14;;;;;;;;;;;;;;;;;;5020599;28;19921;-80
2023/03/29 04:13:47;;;;;;;;;;;;;;;;;;5021329;28;19933;-80
2023/03/29 04:16:35;;;;;;;;;;;;;;;;;;5021277;28;19929;-80
2023/03/29 04:19:17;;;;;;;;;;;;;;;;;;5019189;28;19926;-80
2023/03/29 04:21:48;;;;;;;;;;;;;;;;;;5011823;28;19925;-81
2023/03/29 04:24:20;;;;;;;;;;;;;;;;;;5003716;28;19922;-81
2023/03/29 04:27:07;;;;;;;;;;;;;;;;;;5021704;28;20393;-80
2023/03/29 04:29:35;;;;;;;;;;;;;;;;;;5006137;28;19921;-80
2023/03/29 04:32:17;;;;;;;;;;;;;;;;;;5010444;28;20855;-80
2023/03/29 04:34:55;;;;;;;;;;;;;;;;;;5003112;28;19944;-80
2023/03/29 04:37:22;;;;;;;;;;;;;;;;;;5020158;28;19928;-81
2023/03/29 04:39:53;;;;;;;;;;;;;;;;;;5020577;28;19926;-82
2023/03/29 04:42:22;;;;;;;;;;;;;;;;;;5020854;28;20735;-80
2023/03/29 04:44:50;;;;;;;;;;;;;;;;;;5011088;28;20264;-81
2023/03/29 04:47:28;;;;;;;;;;;;;;;;;;5006960;28;19922;-81
2023/03/29 04:50:00;;;;;;;;;;;;;;;;;;5017118;28;19930;-80
2023/03/29 04:52:38;;;;;;;;;;;;;;;;;;5008061;28;19925;-81
2023/03/29 04:55:10;;;;;;;;;;;;;;;;;;5010519;28;19928;-80
2023/03/29 04:57:46;;;;;;;;;;;;;;;;;;5002143;28;19929;-81
2023/03/29 05:00:26;;;;;;;;;;;;;;;;;;5001709;28;20755;-81
2023/03/29 05:03:30;;;;;;;;;;;;;;;;;;4994798;28;19921;-81
2023/03/29 05:06:05;;;;;;;;;;;;;;;;;;4998693;28;19925;-80
2023/03/29 05:08:38;;;;;;;;;;;;;;;;;;5017837;28;20289;-80
2023/03/29 05:11:28;;;;;;;;;;;;;;;;;;5002019;28;19921;-80
2023/03/29 05:14:01;;;;;;;;;;;;;;;;;;5018262;28;19925;-81
2023/03/29 05:16:34;;;;;;;;;;;;;;;;;;5003243;28;19921;-80
2023/03/29 05:19:01;;;;;;;;;;;;;;;;;;5006809;28;19922;-80
2023/03/29 05:21:37;;;;;;;;;;;;;;;;;;5020499;28;19937;-80
2023/03/29 05:24:08;;;;;;;;;;;;;;;;;;5008155;28;19928;-80
2023/03/29 05:27:02;;;;;;;;;;;;;;;;;;5006986;28;19925;-80
2023/03/29 05:29:32;;;;;;;;;;;;;;;;;;5019097;28;19933;-80
2023/03/29 05:32:15;;;;;;;;;;;;;;;;;;5009899;28;19922;-80
2023/03/29 05:34:48;;;;;;;;;;;;;;;;;;5002672;28;19926;-80
2023/03/29 05:37:16;;;;;;;;;;;;;;;;;;5001783;28;19929;-80
2023/03/29 05:39:50;;;;;;;;;;;;;;;;;;5016970;28;21719;-80
2023/03/29 05:42:22;;;;;;;;;;;;;;;;;;5020962;28;19922;-80
2023/03/29 05:44:58;;;;;;;;;;;;;;;;;;5001816;28;20544;-80
2023/03/29 05:47:31;;;;;;;;;;;;;;;;;;5003518;28;19921;-81
2023/03/29 05:50:04;;;;;;;;;;;;;;;;;;4999405;28;19922;-80
2023/03/29 05:52:37;;;;;;;;;;;;;;;;;;5019151;28;19921;-80
2023/03/29 05:55:04;;;;;;;;;;;;;;;;;;5022450;28;19922;-80
2023/03/29 05:57:32;;;;;;;;;;;;;;;;;;5017365;28;19925;-81
2023/03/29 06:00:00;;;;;;;;;;;;;;;;;;5004780;28;19929;-81
2023/03/29 06:02:39;;;;;;;;;;;;;;;;;;5007540;28;19936;-81
2023/03/29 06:05:07;;;;;;;;;;;;;;;;;;5004448;28;19929;-80
2023/03/29 06:07:50;;;;;;;;;;;;;;;;;;5009331;28;20393;-80
2023/03/29 06:10:37;;;;;;;;;;;;;;;;;;5006806;28;20081;-80
2023/03/29 06:13:18;;;;;;;;;;;;;;;;;;5004317;28;19926;-81
2023/03/29 06:15:50;;;;;;;;;;;;;;;;;;5003485;28;19922;-81
2023/03/29 06:18:24;;;;;;;;;;;;;;;;;;5019212;28;19925;-80
2023/03/29 06:20:57;;;;;;;;;;;;;;;;;;5002402;28;19949;-81
2023/03/29 06:23:30;;;;;;;;;;;;;;;;;;5000682;28;19925;-81
2023/03/29 06:26:02;;;;;;;;;;;;;;;;;;5018941;28;19933;-81
2023/03/29 06:28:30;;;;;;;;;;;;;;;;;;5007905;28;19932;-80
2023/03/29 06:31:03;;;;;;;;;;;;;;;;;;5009650;28;19925;-81
2023/03/29 06:33:36;;;;;;;;;;;;;;;;;;5005933;28;19930;-80
2023/03/29 06:36:22;;;;;;;;;;;;;;;;;;5017881;28;19929;-80
2023/03/29 06:38:51;;;;;;;;;;;;;;;;;;5002293;28;19932;-80
2023/03/29 06:41:26;;;;;;;;;;;;;;;;;;5019231;28;19944;-80
2023/03/29 06:44:16;;;;;;;;;;;;;;;;;;4999228;28;20313;-82
2023/03/29 06:47:03;;;;;;;;;;;;;;;;;;5002869;28;19932;-82
2023/03/29 06:49:36;;;;;;;;;;;;;;;;;;5000905;28;19951;-82
2023/03/29 06:52:29;;;;;;;;;;;;;;;;;;4992152;28;19921;-81
2023/03/29 06:54:57;;;;;;;;;;;;;;;;;;5017058;28;19937;-80
2023/03/29 06:57:29;;;;;;;;;;;;;;;;;;5006568;28;19921;-81
2023/03/29 06:59:57;;;;;;;;;;;;;;;;;;5014849;28;19945;-81
2023/03/29 07:02:38;;;;;;;;;;;;;;;;;;5016492;28;19921;-81
2023/03/29 07:05:10;;;;;;;;;;;;;;;;;;5000882;28;20282;-81
2023/03/29 07:07:55;;;;;;;;;;;;;;;;;;5001351;28;19921;-81
2023/03/29 07:10:43;;;;;;;;;;;;;;;;;;4996216;28;20846;-82
2023/03/29 07:13:34;;;;;;;;;;;;;;;;;;5003711;28;19932;-82
2023/03/29 07:16:04;;;;;;;;;;;;;;;;;;5002462;28;19921;-82
2023/03/29 07:18:40;;;;;;;;;;;;;;;;;;5003003;28;19929;-80
2023/03/29 07:21:08;;;;;;;;;;;;;;;;;;5000549;28;19926;-81
2023/03/29 07:23:41;;;;;;;;;;;;;;;;;;5015388;28;19921;-80
2023/03/29 07:26:14;;;;;;;;;;;;;;;;;;4998210;28;20377;-80
2023/03/29 07:28:42;;;;;;;;;;;;;;;;;;4967742;28;19937;-81
2023/03/29 07:31:10;;;;;;;;;;;;;;;;;;5000620;28;20716;-81
2023/03/29 07:33:45;;;;;;;;;;;;;;;;;;4979456;28;19936;-80
2023/03/29 07:36:14;;;;;;;;;;;;;;;;;;5001434;28;19929;-82
2023/03/29 07:38:41;;;;;;;;;;;;;;;;;;4992637;28;19945;-82
2023/03/29 07:41:18;;;;;;;;;;;;;;;;;;4984768;28;19936;-82
2023/03/29 07:43:50;;;;;;;;;;;;;;;;;;5000052;28;19925;-81
2023/03/29 07:46:22;;;;;;;;;;;;;;;;;;4999146;28;19936;-81
2023/03/29 07:48:56;;;;;;;;;;;;;;;;;;4978622;28;19929;-81
2023/03/29 07:51:28;;;;;;;;;;;;;;;;;;4994849;28;19934;-81
2023/03/29 07:54:06;;;;;;;;;;;;;;;;;;4980076;28;19936;-81
2023/03/29 07:56:48;;;;;;;;;;;;;;;;;;4979072;28;19937;-80
2023/03/29 07:59:28;;;;;;;;;;;;;;;;;;4994806;28;19929;-82
2023/03/29 08:02:08;;;;;;;;;;;;;;;;;;4980032;28;20251;-81
2023/03/29 08:04:38;;;;;;;;;;;;;;;;;;4988072;28;19936;-81
2023/03/29 08:07:12;;;;;;;;;;;;;;;;;;4982724;28;19936;-80
2023/03/29 08:09:56;;;;;;;;;;;;;;;;;;4988095;28;19936;-81
2023/03/29 08:12:52;;;;;;;;;;;;;;;;;;4975436;28;19983;-81
2023/03/29 08:15:51;;;;;;;;;;;;;;;;;;4959037;28;19930;-81
2023/03/29 08:18:26;;;;;;;;;;;;;;;;;;5002169;28;19932;-81
2023/03/29 08:20:53;;;;;;;;;;;;;;;;;;4983321;28;20884;-80
2023/03/29 08:23:21;;;;;;;;;;;;;;;;;;5002137;28;19936;-80
2023/03/29 08:26:03;;;;;;;;;;;;;;;;;;5006255;28;19929;-81
2023/03/29 08:28:36;;;;;;;;;;;;;;;;;;4967733;28;20102;-81
2023/03/29 08:31:04;;;;;;;;;;;;;;;;;;5004667;28;19925;-80
2023/03/29 08:33:41;;;;;;;;;;;;;;;;;;4990330;28;19937;-81
2023/03/29 08:36:27;;;;;;;;;;;;;;;;;;4983056;28;19940;-79
2023/03/29 08:39:07;;;;;;;;;;;;;;;;;;4980480;28;19956;-80
2023/03/29 08:41:35;;;;;;;;;;;;;;;;;;4988340;28;19930;-81
2023/03/29 08:44:09;;;;;;;;;;;;;;;;;;4980879;28;20274;-81
2023/03/29 08:46:51;;;;;;;;;;;;;;;;;;4986175;28;20353;-80
2023/03/29 08:49:27;;;;;;;;;;;;;;;;;;4998603;28;19929;-80
2023/03/29 08:51:54;;;;;;;;;;;;;;;;;;5006060;28;20642;-80
2023/03/29 08:54:23;;;;;;;;;;;;;;;;;;4982187;28;20629;-80
2023/03/29 08:57:11;;;;;;;;;;;;;;;;;;4979665;28;19929;-80
2023/03/29 08:59:42;;;;;;;;;;;;;;;;;;4998150;28;20506;-80
2023/03/29 09:02:11;;;;;;;;;;;;;;;;;;4986548;28;19929;-81
2023/03/29 09:04:39;;;;;;;;;;;;;;;;;;4983920;28;19930;-80
2023/03/29 09:07:23;;;;;;;;;;;;;;;;;;4998481;28;19937;-80
2023/03/29 09:09:51;;;;;;;;;;;;;;;;;;5006575;28;19929;-81
2023/03/29 09:12:26;;;;;;;;;;;;;;;;;;4979732;28;19937;-80
2023/03/29 09:14:54;;;;;;;;;;;;;;;;;;4981740;28;19937;-82
2023/03/29 09:17:21;;;;;;;;;;;;;;;;;;4983659;28;19930;-82
2023/03/29 09:19:49;;;;;;;;;;;;;;;;;;5000144;28;20439;-81
2023/03/29 09:22:22;;;;;;;;;;;;;;;;;;4980684;28;19929;-80
2023/03/29 09:24:55;;;;;;;;;;;;;;;;;;4980714;28;19936;-81
2023/03/29 09:27:23;;;;;;;;;;;;;;;;;;4956823;28;19932;-80
2023/03/29 09:29:56;;;;;;;;;;;;;;;;;;4981938;28;20293;-81
2023/03/29 09:32:38;;;;;;;;;;;;;;;;;;4979822;28;19933;-81
2023/03/29 09:35:13;;;;;;;;;;;;;;;;;;4990222;28;19936;-81
2023/03/29 09:37:40;;;;;;;;;;;;;;;;;;4997726;28;19984;-81
2023/03/29 09:40:08;;;;;;;;;;;;;;;;;;4984505;28;19929;-81
2023/03/29 09:43:04;;;;;;;;;;;;;;;;;;4979444;28;20476;-81
2023/03/29 09:45:34;;;;;;;;;;;;;;;;;;5002951;28;20385;-81
2023/03/29 09:48:01;;;;;;;;;;;;;;;;;;4983332;28;19944;-81
2023/03/29 09:50:30;;;;;;;;;;;;;;;;;;4993116;28;19937;-81
2023/03/29 09:53:06;;;;;;;;;;;;;;;;;;4995082;28;19929;-81
2023/03/29 09:55:38;;;;;;;;;;;;;;;;;;5000926;28;19933;-81
2023/03/29 09:58:13;;;;;;;;;;;;;;;;;;4986195;28;19956;-80
2023/03/29 10:00:44;;;;;;;;;;;;;;;;;;4993709;28;20722;-80
2023/03/29 10:03:11;;;;;;;;;;;;;;;;;;4980624;28;19937;-81
2023/03/29 10:05:51;;;;;;;;;;;;;;;;;;4981653;28;19929;-81
2023/03/29 10:08:19;;;;;;;;;;;;;;;;;;4980334;28;19936;-81
2023/03/29 10:10:47;;;;;;;;;;;;;;;;;;4981669;28;19929;-81
2023/03/29 10:13:19;;;;;;;;;;;;;;;;;;4981404;28;19936;-80
2023/03/29 10:15:52;;;;;;;;;;;;;;;;;;4980283;28;19940;-81
2023/03/29 10:18:20;;;;;;;;;;;;;;;;;;5000491;28;20391;-80
2023/03/29 10:20:47;;;;;;;;;;;;;;;;;;4980832;28;19929;-81
2023/03/29 10:23:16;;;;;;;;;;;;;;;;;;4985614;28;19936;-80
2023/03/29 10:25:48;;;;;;;;;;;;;;;;;;4999826;28;19929;-81
2023/03/29 10:28:16;;;;;;;;;;;;;;;;;;4974150;28;19956;-81
2023/03/29 10:30:43;;;;;;;;;;;;;;;;;;4980586;28;20716;-81
2023/03/29 10:33:11;;;;;;;;;;;;;;;;;;4980292;28;19929;-81
2023/03/29 10:35:40;;;;;;;;;;;;;;;;;;4980905;28;20818;-81
2023/03/29 10:38:07;;;;;;;;;;;;;;;;;;4980702;28;19925;-81
2023/03/29 10:40:35;;;;;;;;;;;;;;;;;;4979508;28;19937;-81
2023/03/29 10:43:03;;;;;;;;;;;;;;;;;;4978718;28;20561;-81
2023/03/29 10:45:36;;;;;;;;;;;;;;;;;;4998396;28;19930;-81
2023/03/29 10:48:05;;;;;;;;;;;;;;;;;;4984549;28;20534;-81
2023/03/29 10:50:33;;;;;;;;;;;;;;;;;;5004514;28;19929;-82
2023/03/29 10:53:01;;;;;;;;;;;;;;;;;;4982924;28;20438;-82
2023/03/29 10:55:28;;;;;;;;;;;;;;;;;;4996000;28;19936;-82
2023/03/29 10:57:56;;;;;;;;;;;;;;;;;;4983820;28;19937;-81
2023/03/29 11:00:23;;;;;;;;;;;;;;;;;;4999534;28;19930;-83
2023/03/29 11:02:51;;;;;;;;;;;;;;;;;;4987969;28;20376;-81
2023/03/29 11:05:19;;;;;;;;;;;;;;;;;;4988448;28;20301;-81
2023/03/29 11:07:46;;;;;;;;;;;;;;;;;;5004359;28;19929;-81
2023/03/29 11:10:19;;;;;;;;;;;;;;;;;;4994966;28;19929;-81
2023/03/29 11:12:51;;;;;;;;;;;;;;;;;;4984464;28;19929;-87
2023/03/29 11:15:19;;;;;;;;;;;;;;;;;;4990458;28;19929;-83
2023/03/29 11:17:49;;;;;;;;;;;;;;;;;;4994692;28;19972;-85
2023/03/29 11:20:17;;;;;;;;;;;;;;;;;;5005013;28;19925;-81
2023/03/29 11:22:46;;;;;;;;;;;;;;;;;;4986700;28;19929;-83
2023/03/29 11:25:14;;;;;;;;;;;;;;;;;;5007475;28;19929;-81
2023/03/29 11:27:42;;;;;;;;;;;;;;;;;;4972992;28;20293;-83
2023/03/29 11:30:14;;;;;;;;;;;;;;;;;;4989765;28;21621;-82
2023/03/29 11:32:42;;;;;;;;;;;;;;;;;;4985757;28;19936;-81
2023/03/29 11:35:09;;;;;;;;;;;;;;;;;;4987974;28;19928;-82
2023/03/29 11:37:37;;;;;;;;;;;;;;;;;;5005199;28;19936;-81
2023/03/29 11:40:04;;;;;;;;;;;;;;;;;;4987681;28;20397;-82
2023/03/29 11:42:32;;;;;;;;;;;;;;;;;;4989579;28;19945;-82
2023/03/29 11:44:59;;;;;;;;;;;;;;;;;;4984790;28;19929;-83
2023/03/29 11:47:27;;;;;;;;;;;;;;;;;;5002510;28;20293;-81
2023/03/29 11:49:59;;;;;;;;;;;;;;;;;;4991768;28;19958;-82
2023/03/29 11:52:32;;;;;;;;;;;;;;;;;;4991967;28;20566;-83
2023/03/29 11:55:05;;;;;;;;;;;;;;;;;;4983139;28;19936;-82
2023/03/29 11:57:32;;;;;;;;;;;;;;;;;;4989713;28;19929;-82
2023/03/29 12:00:00;;;;;;;;;;;;;;;;;;5005362;28;20365;-82
2023/03/29 12:02:28;;;;;;;;;;;;;;;;;;4985889;28;19936;-82
2023/03/29 12:05:00;;;;;;;;;;;;;;;;;;4989579;28;19930;-82
2023/03/29 12:07:28;;;;;;;;;;;;;;;;;;4988415;28;19937;-81
2023/03/29 12:09:56;;;;;;;;;;;;;;;;;;5004714;28;19936;-83
2023/03/29 12:12:24;;;;;;;;;;;;;;;;;;5003005;28;19936;-81
2023/03/29 12:14:51;;;;;;;;;;;;;;;;;;4985177;28;20644;-81
2023/03/29 12:17:19;;;;;;;;;;;;;;;;;;5001630;28;19937;-81
2023/03/29 12:19:46;;;;;;;;;;;;;;;;;;4985583;28;19929;-82
2023/03/29 12:22:14;;;;;;;;;;;;;;;;;;4983218;28;20604;-81
2023/03/29 12:24:44;;;;;;;;;;;;;;;;;;5002091;28;20628;-80
2023/03/29 12:27:19;;;;;;;;;;;;;;;;;;4967296;28;19929;-82
2023/03/29 12:29:46;;;;;;;;;;;;;;;;;;4992921;28;20620;-82
2023/03/29 12:32:19;;;;;;;;;;;;;;;;;;4985679;28;20320;-82
2023/03/29 12:34:55;;;;;;;;;;;;;;;;;;4986721;28;19929;-82
2023/03/29 12:37:47;;;;;;;;;;;;;;;;;;4985936;28;19980;-81
2023/03/29 12:40:47;;;;;;;;;;;;;;;;;;4975575;28;20305;-81
2023/03/29 12:43:33;;;;;;;;;;;;;;;;;;4983615;28;19983;-82
2023/03/29 12:46:19;;;;;;;;;;;;;;;;;;4998886;28;19925;-82
2023/03/29 12:48:46;;;;;;;;;;;;;;;;;;5003166;28;20378;-82
2023/03/29 12:51:19;;;;;;;;;;;;;;;;;;4986282;28;20818;-81
2023/03/29 12:53:46;;;;;;;;;;;;;;;;;;4998456;28;19940;-81
2023/03/29 12:56:19;;;;;;;;;;;;;;;;;;4982019;28;19929;-81
2023/03/29 12:58:47;;;;;;;;;;;;;;;;;;4989402;28;21152;-83
2023/03/29 13:01:14;;;;;;;;;;;;;;;;;;4987547;28;19941;-80
2023/03/29 13:03:42;;;;;;;;;;;;;;;;;;5000938;28;19925;-81
2023/03/29 13:06:09;;;;;;;;;;;;;;;;;;5002019;28;19929;-81
2023/03/29 13:08:42;;;;;;;;;;;;;;;;;;5004578;28;19929;-81
2023/03/29 13:11:14;;;;;;;;;;;;;;;;;;4992483;28;20797;-81
2023/03/29 13:13:47;;;;;;;;;;;;;;;;;;5003637;28;20488;-81
2023/03/29 13:16:15;;;;;;;;;;;;;;;;;;4991749;28;19928;-82
2023/03/29 13:18:42;;;;;;;;;;;;;;;;;;5003811;28;19929;-81
2023/03/29 13:21:10;;;;;;;;;;;;;;;;;;4987007;28;19929;-80
2023/03/29 13:23:38;;;;;;;;;;;;;;;;;;5000239;28;19925;-82
2023/03/29 13:26:10;;;;;;;;;;;;;;;;;;4989642;28;19929;-81
2023/03/29 13:28:38;;;;;;;;;;;;;;;;;;4991524;28;19929;-80
2023/03/29 13:31:06;;;;;;;;;;;;;;;;;;5003232;28;20405;-82
2023/03/29 13:33:34;;;;;;;;;;;;;;;;;;4982806;28;19929;-82
2023/03/29 13:36:02;;;;;;;;;;;;;;;;;;4983826;28;19944;-82
2023/03/29 13:38:32;;;;;;;;;;;;;;;;;;4980990;28;19929;-81
2023/03/29 13:40:59;;;;;;;;;;;;;;;;;;4985028;28;19936;-82
2023/03/29 13:43:32;;;;;;;;;;;;;;;;;;4988247;28;20286;-82
2023/03/29 13:46:00;;;;;;;;;;;;;;;;;;4991145;28;19944;-81
2023/03/29 13:48:27;;;;;;;;;;;;;;;;;;4996211;28;19937;-82
2023/03/29 13:50:55;;;;;;;;;;;;;;;;;;5008875;28;19930;-82
2023/03/29 13:53:27;;;;;;;;;;;;;;;;;;4990483;28;20013;-83
2023/03/29 13:55:55;;;;;;;;;;;;;;;;;;4990077;28;19929;-84
2023/03/29 13:58:23;;;;;;;;;;;;;;;;;;4986119;28;19929;-82
2023/03/29 14:00:55;;;;;;;;;;;;;;;;;;4988368;28;19940;-82
2023/03/29 14:03:28;;;;;;;;;;;;;;;;;;4985982;28;20283;-83
2023/03/29 14:05:55;;;;;;;;;;;;;;;;;;4991757;28;19930;-83
2023/03/29 14:08:23;;;;;;;;;;;;;;;;;;4993259;28;19937;-83
2023/03/29 14:10:51;;;;;;;;;;;;;;;;;;5001174;28;19929;-83
2023/03/29 14:13:18;;;;;;;;;;;;;;;;;;4995754;28;19940;-83
2023/03/29 14:15:46;;;;;;;;;;;;;;;;;;4988925;28;19929;-83
2023/03/29 14:18:13;;;;;;;;;;;;;;;;;;5007884;28;20301;-82
2023/03/29 14:20:41;;;;;;;;;;;;;;;;;;4986430;28;19929;-83
2023/03/29 14:23:08;;;;;;;;;;;;;;;;;;4991932;28;19940;-83
2023/03/29 14:25:36;;;;;;;;;;;;;;;;;;4999537;28;19941;-84
2023/03/29 14:28:04;;;;;;;;;;;;;;;;;;4972648;28;19936;-83
2023/03/29 14:30:31;;;;;;;;;;;;;;;;;;4983239;28;19929;-83
2023/03/29 14:33:03;;;;;;;;;;;;;;;;;;4983052;28;19929;-83
2023/03/29 14:35:31;;;;;;;;;;;;;;;;;;4985518;28;19937;-84
2023/03/29 14:38:00;;;;;;;;;;;;;;;;;;5004956;28;19929;-83
2023/03/29 14:40:33;;;;;;;;;;;;;;;;;;4984537;28;19929;-83
2023/03/29 14:43:01;;;;;;;;;;;;;;;;;;4981116;28;19936;-83
2023/03/29 14:45:28;;;;;;;;;;;;;;;;;;5004253;28;19937;-83
2023/03/29 14:47:56;;;;;;;;;;;;;;;;;;4985184;28;19929;-83
2023/03/29 14:50:25;;;;;;;;;;;;;;;;;;4987357;28;19929;-83
2023/03/29 14:52:52;;;;;;;;;;;;;;;;;;4991989;28;19926;-83
2023/03/29 14:55:26;;;;;;;;;;;;;;;;;;4987808;28;19937;-83
2023/03/29 14:57:53;;;;;;;;;;;;;;;;;;4988690;28;19930;-84
2023/03/29 15:00:24;;;;;;;;;;;;;;;;;;4987321;28;19929;-83
2023/03/29 15:02:52;;;;;;;;;;;;;;;;;;4989088;28;19936;-83
2023/03/29 15:05:20;;;;;;;;;;;;;;;;;;4994335;28;20421;-83
2023/03/29 15:07:47;;;;;;;;;;;;;;;;;;5003700;28;19941;-83
2023/03/29 15:10:17;;;;;;;;;;;;;;;;;;4989954;28;19936;-84
2023/03/29 15:12:45;;;;;;;;;;;;;;;;;;5001113;28;19936;-82
2023/03/29 15:15:14;;;;;;;;;;;;;;;;;;4996693;28;19929;-83
2023/03/29 15:17:41;;;;;;;;;;;;;;;;;;4988519;28;19925;-83
2023/03/29 15:20:10;;;;;;;;;;;;;;;;;;4990093;28;20844;-82
2023/03/29 15:22:38;;;;;;;;;;;;;;;;;;4987956;28;19936;-82
2023/03/29 15:25:07;;;;;;;;;;;;;;;;;;5008909;28;19937;-84
2023/03/29 15:27:34;;;;;;;;;;;;;;;;;;4990453;28;20618;-83
2023/03/29 15:30:02;;;;;;;;;;;;;;;;;;4984248;28;19940;-83
2023/03/29 15:32:30;;;;;;;;;;;;;;;;;;5005099;28;19925;-84
2023/03/29 15:34:57;;;;;;;;;;;;;;;;;;4989913;28;19936;-83
2023/03/29 15:37:30;;;;;;;;;;;;;;;;;;5004237;28;19930;-84
2023/03/29 15:39:57;;;;;;;;;;;;;;;;;;4988006;28;19936;-84
2023/03/29 15:42:25;;;;;;;;;;;;;;;;;;5012591;28;19929;-85
2023/03/29 15:44:53;;;;;;;;;;;;;;;;;;5010494;28;21179;-85
2023/03/29 15:47:20;;;;;;;;;;;;;;;;;;5010279;28;19922;-84
2023/03/29 15:49:48;;;;;;;;;;;;;;;;;;4987620;28;19929;-83
2023/03/29 15:52:16;;;;;;;;;;;;;;;;;;5006155;28;19922;-84
2023/03/29 15:54:43;;;;;;;;;;;;;;;;;;4999808;28;19925;-84
2023/03/29 15:57:11;;;;;;;;;;;;;;;;;;4999114;28;19945;-83
2023/03/29 15:59:38;;;;;;;;;;;;;;;;;;4992460;28;19929;-84
2023/03/29 16:02:11;;;;;;;;;;;;;;;;;;5013228;28;20400;-85
2023/03/29 16:04:38;;;;;;;;;;;;;;;;;;5011032;28;19952;-85
2023/03/29 16:07:06;;;;;;;;;;;;;;;;;;4992912;28;19936;-84
2023/03/29 16:09:33;;;;;;;;;;;;;;;;;;5013055;28;19929;-84
2023/03/29 16:12:01;;;;;;;;;;;;;;;;;;4992099;28;19937;-84
2023/03/29 16:14:30;;;;;;;;;;;;;;;;;;5008152;28;19929;-84
2023/03/29 16:16:57;;;;;;;;;;;;;;;;;;5004079;28;19936;-84
2023/03/29 16:19:25;;;;;;;;;;;;;;;;;;4991478;28;19929;-85
2023/03/29 16:21:57;;;;;;;;;;;;;;;;;;4989095;28;19937;-84
2023/03/29 16:24:30;;;;;;;;;;;;;;;;;;4989137;28;20636;-84
2023/03/29 16:27:03;;;;;;;;;;;;;;;;;;4983889;28;20478;-84
2023/03/29 16:29:31;;;;;;;;;;;;;;;;;;4973095;28;19929;-84
2023/03/29 16:31:58;;;;;;;;;;;;;;;;;;4991131;28;19929;-84
2023/03/29 16:34:26;;;;;;;;;;;;;;;;;;4999267;28;19941;-84
2023/03/29 16:36:54;;;;;;;;;;;;;;;;;;4999082;28;19936;-84
2023/03/29 16:39:21;;;;;;;;;;;;;;;;;;5009130;28;19929;-84
2023/03/29 16:41:54;;;;;;;;;;;;;;;;;;5008770;28;19929;-87
2023/03/29 16:44:23;;;;;;;;;;;;;;;;;;4994957;28;19929;-85
2023/03/29 16:46:57;;;;;;;;;;;;;;;;;;4995498;28;20321;-85
2023/03/29 16:49:24;;;;;;;;;;;;;;;;;;4991136;28;20009;-86
2023/03/29 16:51:52;;;;;;;;;;;;;;;;;;4991407;28;19940;-86
2023/03/29 16:54:20;;;;;;;;;;;;;;;;;;4989045;28;19930;-86
2023/03/29 16:56:47;;;;;;;;;;;;;;;;;;4992540;28;19930;-85
2023/03/29 16:59:15;;;;;;;;;;;;;;;;;;4994954;28;20572;-86
2023/03/29 17:01:47;;;;;;;;;;;;;;;;;;4994225;28;19940;-86
2023/03/29 17:04:15;;;;;;;;;;;;;;;;;;4992354;28;19951;-87
2023/03/29 17:06:43;;;;;;;;;;;;;;;;;;4996381;28;19929;-87
2023/03/29 17:09:10;;;;;;;;;;;;;;;;;;5008710;28;19929;-82
2023/03/29 17:11:38;;;;;;;;;;;;;;;;;;5006813;28;19930;-83
2023/03/29 17:14:05;;;;;;;;;;;;;;;;;;4991402;28;19929;-86